Time;durP1;ratioP1;P1;durP2;ratioP2;P2;SDS_P1;SDS_P2;PMS_P1;PMS_P2;Temp;Humidity;BMP_temperature;BMP_pressure;BME280_temperature;BME280_humidity;BME280_pressure;Samples;Min_cycle;Max_cycle;Signal;HPM_P1;HPM_P2
2024/01/22 00:00:38;;;;;;;42.05;23.65;;;0.30;99.90;;;;;;2094244;28;20027;-82
2024/01/22 00:01:43;;;;;;;41.85;23.75;;;0.30;99.90;;;;;;2086231;28;20028;-82
2024/01/22 00:02:44;;;;;;;43.13;23.70;;;0.30;99.90;;;;;;2074602;28;20678;-82
2024/01/22 00:03:59;;;;;;;42.90;23.48;;;0.30;99.90;;;;;;2086715;28;20060;-80
2024/01/22 00:05:00;;;;;;;39.03;22.38;;;0.30;99.90;;;;;;2097246;28;20024;-80
2024/01/22 00:06:00;;;;;;;40.88;23.55;;;0.30;99.90;;;;;;2084552;28;20399;-83
2024/01/22 00:07:01;;;;;;;42.28;22.75;;;0.30;99.90;;;;;;2079508;28;20056;-82
2024/01/22 00:08:03;;;;;;;40.15;23.08;;;0.30;99.90;;;;;;2085428;28;20068;-82
2024/01/22 00:09:05;;;;;;;41.85;23.75;;;0.40;99.90;;;;;;2088428;28;20024;-83
2024/01/22 00:10:06;;;;;;;39.05;23.38;;;0.40;99.90;;;;;;2089220;28;20032;-81
2024/01/22 00:11:13;;;;;;;41.58;23.98;;;0.40;99.90;;;;;;2086226;28;20033;-82
2024/01/22 00:12:26;;;;;;;42.70;23.13;;;0.40;99.90;;;;;;2087563;28;20396;-81
2024/01/22 00:13:27;;;;;;;41.33;23.33;;;0.40;99.90;;;;;;2091129;28;20047;-81
2024/01/22 00:14:28;;;;;;;37.42;22.40;;;0.40;99.90;;;;;;2089077;28;20035;-83
2024/01/22 00:15:28;;;;;;;37.97;22.60;;;0.50;99.90;;;;;;2086948;28;20054;-80
2024/01/22 00:16:29;;;;;;;37.83;22.50;;;0.50;99.90;;;;;;2090360;28;20040;-82
2024/01/22 00:17:29;;;;;;;38.42;22.58;;;0.50;99.90;;;;;;2084632;28;20106;-81
2024/01/22 00:18:30;;;;;;;40.15;23.05;;;0.50;99.90;;;;;;2092585;28;20032;-82
2024/01/22 00:19:31;;;;;;;38.03;22.58;;;0.40;99.90;;;;;;2091861;28;20028;-82
2024/01/22 00:20:31;;;;;;;37.17;22.17;;;0.40;99.90;;;;;;2100741;28;20703;-82
2024/01/22 00:21:35;;;;;;;38.95;23.23;;;0.40;99.90;;;;;;2089298;28;20410;-80
2024/01/22 00:22:35;;;;;;;38.75;22.73;;;0.40;99.90;;;;;;2090444;28;20032;-80
2024/01/22 00:23:36;;;;;;;38.83;22.58;;;0.40;99.90;;;;;;2090830;28;20353;-84
2024/01/22 00:24:36;;;;;;;38.40;22.60;;;0.40;99.90;;;;;;2098275;28;20028;-80
2024/01/22 00:25:37;;;;;;;39.05;22.60;;;0.40;99.90;;;;;;2090531;28;20511;-81
2024/01/22 00:26:37;;;;;;;38.50;22.98;;;0.40;99.90;;;;;;2095659;28;20022;-81
2024/01/22 00:27:38;;;;;;;39.35;22.60;;;0.40;99.90;;;;;;2090552;28;20184;-83
2024/01/22 00:28:42;;;;;;;36.65;21.60;;;0.40;99.90;;;;;;2097731;28;20075;-82
2024/01/22 00:29:45;;;;;;;39.33;22.73;;;0.40;99.90;;;;;;2087524;28;20032;-81
2024/01/22 00:30:45;;;;;;;38.53;23.15;;;0.40;99.90;;;;;;2077704;28;20048;-74
2024/01/22 00:31:46;;;;;;;38.00;22.08;;;0.40;99.90;;;;;;2072885;28;20655;-75
2024/01/22 00:32:47;;;;;;;37.47;22.35;;;0.50;99.90;;;;;;2081791;28;20092;-72
2024/01/22 00:33:47;;;;;;;37.30;21.92;;;0.50;99.90;;;;;;2080491;28;20246;-75
2024/01/22 00:34:48;;;;;;;39.30;21.85;;;0.50;99.90;;;;;;2091332;28;20553;-74
2024/01/22 00:35:48;;;;;;;38.63;22.65;;;0.50;99.90;;;;;;2092135;28;20104;-75
2024/01/22 00:36:53;;;;;;;36.20;22.23;;;0.50;99.90;;;;;;2091629;28;20031;-75
2024/01/22 00:37:53;;;;;;;40.03;22.40;;;0.50;99.90;;;;;;2091655;28;20090;-75
2024/01/22 00:38:54;;;;;;;40.80;23.38;;;0.50;99.90;;;;;;2083958;28;20584;-76
2024/01/22 00:39:57;;;;;;;38.00;22.27;;;0.50;99.90;;;;;;2091441;28;20485;-75
2024/01/22 00:40:58;;;;;;;39.85;22.73;;;0.40;99.90;;;;;;2084937;28;20044;-75
2024/01/22 00:41:59;;;;;;;39.45;23.00;;;0.40;99.90;;;;;;2088775;28;20032;-73
2024/01/22 00:43:00;;;;;;;38.90;22.27;;;0.40;99.90;;;;;;2087887;28;20052;-73
2024/01/22 00:44:00;;;;;;;38.92;23.10;;;0.40;99.90;;;;;;2095578;28;20040;-73
2024/01/22 00:45:07;;;;;;;41.22;23.20;;;0.40;99.90;;;;;;2086676;28;20044;-75
2024/01/22 00:46:08;;;;;;;38.50;22.52;;;0.40;99.90;;;;;;2090621;28;20032;-74
2024/01/22 00:47:08;;;;;;;40.45;22.88;;;0.40;99.90;;;;;;2089668;28;20646;-74
2024/01/22 00:48:09;;;;;;;42.90;23.25;;;0.40;99.90;;;;;;2069541;28;20451;-74
2024/01/22 00:49:10;;;;;;;40.28;22.80;;;0.40;99.90;;;;;;2086455;28;20029;-74
2024/01/22 00:50:10;;;;;;;39.63;22.65;;;0.40;99.90;;;;;;2089081;28;20062;-74
2024/01/22 00:51:11;;;;;;;39.63;22.38;;;0.30;99.90;;;;;;2092249;28;20025;-74
2024/01/22 00:52:20;;;;;;;40.92;23.13;;;0.30;99.90;;;;;;2103843;28;20569;-74
2024/01/22 00:53:21;;;;;;;39.83;23.52;;;0.30;99.90;;;;;;2088317;28;20030;-73
2024/01/22 00:54:22;;;;;;;42.40;23.42;;;0.30;99.90;;;;;;2080642;28;20053;-74
2024/01/22 00:55:22;;;;;;;39.50;21.73;;;0.30;99.90;;;;;;2077312;28;20044;-73
2024/01/22 00:56:23;;;;;;;41.25;23.30;;;0.30;99.90;;;;;;2083454;28;20075;-74
2024/01/22 00:57:24;;;;;;;37.17;22.45;;;0.30;99.90;;;;;;2098199;28;20040;-73
2024/01/22 00:58:27;;;;;;;39.38;22.58;;;0.30;99.90;;;;;;2083114;28;20104;-74
2024/01/22 00:59:28;;;;;;;38.15;21.73;;;0.30;99.90;;;;;;2075588;28;20034;-74
2024/01/22 01:00:28;;;;;;;39.95;22.23;;;0.40;99.90;;;;;;2085650;28;20522;-74
2024/01/22 01:01:32;;;;;;;40.28;22.58;;;0.40;99.90;;;;;;2089261;28;20091;-74
2024/01/22 01:02:32;;;;;;;39.97;22.45;;;0.40;99.90;;;;;;2080097;28;20040;-74
2024/01/22 01:03:33;;;;;;;38.35;22.10;;;0.40;99.90;;;;;;2083550;28;20061;-74
2024/01/22 01:04:34;;;;;;;37.85;21.30;;;0.40;99.90;;;;;;2083473;28;20025;-73
2024/01/22 01:05:41;;;;;;;38.30;22.27;;;0.50;99.90;;;;;;2095354;28;20024;-73
2024/01/22 01:06:43;;;;;;;37.13;21.83;;;0.50;99.90;;;;;;2091923;28;20020;-74
2024/01/22 01:07:43;;;;;;;37.53;22.00;;;0.50;99.90;;;;;;2083769;28;20033;-75
2024/01/22 01:08:54;;;;;;;34.47;20.58;;;0.60;99.90;;;;;;2083484;28;20386;-72
2024/01/22 01:09:54;;;;;;;39.65;21.20;;;0.60;99.90;;;;;;2089938;28;20560;-74
2024/01/22 01:10:56;;;;;;;36.90;20.85;;;0.60;99.90;;;;;;2076932;28;20042;-73
2024/01/22 01:11:57;;;;;;;34.55;20.83;;;0.60;99.90;;;;;;2089747;28;20544;-75
2024/01/22 01:12:58;;;;;;;36.10;20.67;;;0.60;99.90;;;;;;2078131;28;20045;-74
2024/01/22 01:13:59;;;;;;;35.17;20.42;;;0.60;99.90;;;;;;2085551;28;20112;-73
2024/01/22 01:15:00;;;;;;;36.33;20.67;;;0.60;99.90;;;;;;2091584;28;20143;-73
2024/01/22 01:16:01;;;;;;;37.15;20.65;;;0.60;99.90;;;;;;2084540;28;20021;-74
2024/01/22 01:17:01;;;;;;;35.88;20.80;;;0.50;99.90;;;;;;2100230;28;20567;-73
2024/01/22 01:18:04;;;;;;;35.45;20.83;;;0.60;99.90;;;;;;2100271;28;20052;-74
2024/01/22 01:19:06;;;;;;;33.88;20.27;;;0.60;99.90;;;;;;2092284;28;20530;-74
2024/01/22 01:20:07;;;;;;;36.17;20.80;;;0.60;99.90;;;;;;2075782;28;20037;-74
2024/01/22 01:21:07;;;;;;;34.03;20.05;;;0.60;99.90;;;;;;2079377;28;20029;-73
2024/01/22 01:22:08;;;;;;;33.70;20.35;;;0.60;99.90;;;;;;2077847;28;20075;-74
2024/01/22 01:23:08;;;;;;;34.97;20.75;;;0.60;99.90;;;;;;2076341;28;20029;-74
2024/01/22 01:24:09;;;;;;;35.25;20.30;;;0.60;99.90;;;;;;2087441;28;20033;-75
2024/01/22 01:25:10;;;;;;;34.60;20.10;;;0.60;99.90;;;;;;2094030;28;20395;-75
2024/01/22 01:26:10;;;;;;;34.83;20.77;;;0.70;99.90;;;;;;2071799;28;20105;-75
2024/01/22 01:27:11;;;;;;;34.30;20.75;;;0.70;99.90;;;;;;2083257;28;20033;-74
2024/01/22 01:28:12;;;;;;;35.22;20.65;;;0.70;99.90;;;;;;2087204;28;20024;-75
2024/01/22 01:29:12;;;;;;;33.53;20.08;;;0.70;99.90;;;;;;2091659;28;20058;-75
2024/01/22 01:30:13;;;;;;;37.30;21.23;;;0.70;99.90;;;;;;2087468;28;20423;-74
2024/01/22 01:31:14;;;;;;;33.75;19.10;;;0.70;99.90;;;;;;2084724;28;20032;-74
2024/01/22 01:32:14;;;;;;;33.42;20.50;;;0.70;99.90;;;;;;2093421;28;20451;-73
2024/01/22 01:33:15;;;;;;;35.90;20.10;;;0.70;99.90;;;;;;2089525;28;20048;-74
2024/01/22 01:34:16;;;;;;;32.53;20.13;;;0.70;99.90;;;;;;2096113;28;20072;-74
2024/01/22 01:35:17;;;;;;;35.35;20.02;;;0.80;99.90;;;;;;2085326;28;20110;-73
2024/01/22 01:36:29;;;;;;;34.00;20.10;;;0.80;99.90;;;;;;2084921;28;20056;-74
2024/01/22 01:37:30;;;;;;;33.83;19.52;;;0.80;99.90;;;;;;2089322;28;20025;-74
2024/01/22 01:38:30;;;;;;;36.75;20.25;;;0.70;99.90;;;;;;2081466;28;20120;-74
2024/01/22 01:39:31;;;;;;;31.75;19.25;;;0.70;99.90;;;;;;2086348;28;20494;-74
2024/01/22 01:40:32;;;;;;;36.58;20.45;;;0.80;99.90;;;;;;2076532;28;20033;-75
2024/01/22 01:41:32;;;;;;;32.22;19.23;;;0.80;99.90;;;;;;2086746;28;20029;-74
2024/01/22 01:42:33;;;;;;;32.92;19.58;;;0.80;99.90;;;;;;2088678;28;20036;-74
2024/01/22 01:43:33;;;;;;;32.42;19.05;;;0.80;99.90;;;;;;2092717;28;20480;-74
2024/01/22 01:44:37;;;;;;;31.35;19.00;;;0.90;99.90;;;;;;2076490;28;20025;-74
2024/01/22 01:45:37;;;;;;;31.60;19.00;;;0.90;99.90;;;;;;2088082;28;21050;-76
2024/01/22 01:46:42;;;;;;;30.73;18.70;;;0.90;99.90;;;;;;2093440;28;20025;-74
2024/01/22 01:47:50;;;;;;;32.63;19.42;;;0.90;99.90;;;;;;2092592;28;20092;-74
2024/01/22 01:48:51;;;;;;;31.10;19.10;;;0.90;99.90;;;;;;2092229;28;20036;-76
2024/01/22 01:49:58;;;;;;;32.42;18.80;;;0.90;99.90;;;;;;2092862;28;20036;-75
2024/01/22 01:51:00;;;;;;;30.50;18.85;;;0.90;99.90;;;;;;2080606;28;20134;-75
2024/01/22 01:52:01;;;;;;;31.95;19.35;;;0.90;99.90;;;;;;2080124;28;20128;-74
2024/01/22 01:53:03;;;;;;;34.60;19.38;;;0.90;99.90;;;;;;2084143;28;20067;-75
2024/01/22 01:54:06;;;;;;;31.83;19.73;;;0.90;99.90;;;;;;2086221;28;20679;-75
2024/01/22 01:55:07;;;;;;;31.67;19.23;;;0.90;99.90;;;;;;2097585;28;20032;-74
2024/01/22 01:56:08;;;;;;;29.08;18.80;;;0.90;99.90;;;;;;2099023;28;20481;-77
2024/01/22 01:57:11;;;;;;;31.35;18.25;;;0.90;99.90;;;;;;2087865;28;20450;-74
2024/01/22 01:58:13;;;;;;;31.27;19.35;;;0.90;99.90;;;;;;2091153;28;20066;-75
2024/01/22 01:59:14;;;;;;;31.65;18.38;;;0.90;99.90;;;;;;2090567;28;20107;-75
2024/01/22 02:00:16;;;;;;;31.80;18.73;;;0.90;99.90;;;;;;2085207;28;20111;-74
2024/01/22 02:01:17;;;;;;;30.63;18.05;;;0.90;99.90;;;;;;2088910;28;20047;-74
2024/01/22 02:02:20;;;;;;;30.55;18.50;;;1.00;99.90;;;;;;2088176;28;20188;-75
2024/01/22 02:03:20;;;;;;;33.13;18.42;;;1.00;99.90;;;;;;2085621;28;20029;-76
2024/01/22 02:04:26;;;;;;;29.83;18.40;;;1.00;99.90;;;;;;2088940;28;20499;-76
2024/01/22 02:05:27;;;;;;;31.80;18.88;;;1.00;99.90;;;;;;2090074;28;20021;-75
2024/01/22 02:06:30;;;;;;;30.20;18.80;;;1.00;99.90;;;;;;2092394;28;20032;-74
2024/01/22 02:07:31;;;;;;;30.23;18.67;;;1.10;99.90;;;;;;2080921;28;20120;-74
2024/01/22 02:08:32;;;;;;;29.75;18.30;;;1.00;99.90;;;;;;2080228;28;20025;-74
2024/01/22 02:09:48;;;;;;;32.65;19.25;;;1.00;99.90;;;;;;2085746;28;20032;-74
2024/01/22 02:10:49;;;;;;;31.27;18.15;;;1.00;99.90;;;;;;2091338;28;20036;-74
2024/01/22 02:11:54;;;;;;;30.58;18.52;;;1.00;99.90;;;;;;2084619;28;20029;-75
2024/01/22 02:12:55;;;;;;;30.98;18.45;;;1.00;99.90;;;;;;2085143;28;20039;-75
2024/01/22 02:13:56;;;;;;;30.13;18.33;;;1.00;99.90;;;;;;2090697;28;20035;-74
2024/01/22 02:14:57;;;;;;;33.35;17.60;;;1.10;99.90;;;;;;2084333;28;20025;-74
2024/01/22 02:15:58;;;;;;;30.08;18.27;;;1.10;99.90;;;;;;2072325;28;20037;-74
2024/01/22 02:16:58;;;;;;;27.90;17.63;;;1.10;99.90;;;;;;2080280;28;20059;-75
2024/01/22 02:18:02;;;;;;;30.60;18.08;;;1.10;99.90;;;;;;2076152;28;20032;-75
2024/01/22 02:19:03;;;;;;;29.50;18.17;;;1.20;99.90;;;;;;2088597;28;20474;-74
2024/01/22 02:20:15;;;;;;;32.05;18.13;;;1.10;99.90;;;;;;2089592;28;20032;-74
2024/01/22 02:21:16;;;;;;;29.02;18.30;;;1.20;99.90;;;;;;2087889;28;20056;-74
2024/01/22 02:22:16;;;;;;;29.90;17.77;;;1.20;99.90;;;;;;2088274;28;20527;-74
2024/01/22 02:23:17;;;;;;;31.30;18.05;;;1.20;99.90;;;;;;2090433;28;20013;-74
2024/01/22 02:24:17;;;;;;;28.95;17.92;;;1.20;99.90;;;;;;2083568;28;20484;-74
2024/01/22 02:25:18;;;;;;;30.13;17.67;;;1.20;99.90;;;;;;2082342;28;20078;-74
2024/01/22 02:26:19;;;;;;;30.73;17.85;;;1.20;99.90;;;;;;2097473;28;20116;-75
2024/01/22 02:27:22;;;;;;;29.38;16.90;;;1.30;99.90;;;;;;2092597;28;20048;-74
2024/01/22 02:28:22;;;;;;;28.02;17.02;;;1.20;99.90;;;;;;2094079;28;20063;-74
2024/01/22 02:29:23;;;;;;;30.33;18.00;;;1.30;99.90;;;;;;2101001;28;20414;-73
2024/01/22 02:30:24;;;;;;;28.13;17.00;;;1.30;99.90;;;;;;2088050;28;20025;-74
2024/01/22 02:31:25;;;;;;;27.88;17.08;;;1.30;99.90;;;;;;2085205;28;20553;-74
2024/01/22 02:32:25;;;;;;;28.58;16.63;;;1.30;99.90;;;;;;2085138;28;20782;-75
2024/01/22 02:33:26;;;;;;;28.90;17.17;;;1.30;99.90;;;;;;2076945;28;20029;-74
2024/01/22 02:34:26;;;;;;;28.20;17.42;;;1.30;99.90;;;;;;2083876;28;20041;-75
2024/01/22 02:35:30;;;;;;;27.80;16.85;;;1.40;99.90;;;;;;2084553;28;20031;-74
2024/01/22 02:36:30;;;;;;;27.40;17.10;;;1.30;99.90;;;;;;2084621;28;20036;-74
2024/01/22 02:37:31;;;;;;;28.40;16.65;;;1.30;99.90;;;;;;2084289;28;20096;-75
2024/01/22 02:38:32;;;;;;;27.98;16.98;;;1.30;99.90;;;;;;2079933;28;20021;-75
2024/01/22 02:39:33;;;;;;;30.38;16.88;;;1.30;99.90;;;;;;2079912;28;20024;-75
2024/01/22 02:40:33;;;;;;;28.23;16.83;;;1.30;99.90;;;;;;2080172;28;20037;-75
2024/01/22 02:41:43;;;;;;;26.63;16.27;;;1.30;99.90;;;;;;2080693;28;20716;-75
2024/01/22 02:42:44;;;;;;;27.10;16.20;;;1.30;99.90;;;;;;2085926;28;20582;-74
2024/01/22 02:43:44;;;;;;;27.02;16.40;;;1.30;99.90;;;;;;2092412;28;20064;-75
2024/01/22 02:44:45;;;;;;;27.38;16.92;;;1.30;99.90;;;;;;2086692;28;20021;-75
2024/01/22 02:45:47;;;;;;;27.50;16.65;;;1.30;99.90;;;;;;2090171;28;20128;-75
2024/01/22 02:46:48;;;;;;;26.45;16.73;;;1.30;99.90;;;;;;2080731;28;20466;-74
2024/01/22 02:47:48;;;;;;;25.58;16.08;;;1.30;99.90;;;;;;2086173;28;20047;-75
2024/01/22 02:48:49;;;;;;;26.85;15.93;;;1.30;99.90;;;;;;2082540;28;20146;-74
2024/01/22 02:49:49;;;;;;;26.52;16.25;;;1.40;99.90;;;;;;2084334;28;20039;-74
2024/01/22 02:50:50;;;;;;;25.70;15.77;;;1.30;99.90;;;;;;2081678;28;20544;-74
2024/01/22 02:51:50;;;;;;;27.90;15.80;;;1.40;99.90;;;;;;2104266;28;20123;-75
2024/01/22 02:52:51;;;;;;;25.55;15.63;;;1.40;99.90;;;;;;2102232;28;20044;-74
2024/01/22 02:53:53;;;;;;;29.48;16.25;;;1.40;99.90;;;;;;2079945;28;20041;-74
2024/01/22 02:54:53;;;;;;;27.23;16.25;;;1.40;99.90;;;;;;2082787;28;20720;-75
2024/01/22 02:55:54;;;;;;;25.48;16.35;;;1.40;99.90;;;;;;2100612;28;20089;-74
2024/01/22 02:56:54;;;;;;;28.98;16.38;;;1.40;99.90;;;;;;2091054;28;20029;-75
2024/01/22 02:57:55;;;;;;;27.88;16.20;;;1.40;99.90;;;;;;2085972;28;20044;-75
2024/01/22 02:58:56;;;;;;;27.05;16.55;;;1.30;99.90;;;;;;2085464;28;20028;-76
2024/01/22 02:59:56;;;;;;;30.67;16.55;;;1.30;99.90;;;;;;2086453;28;20029;-75
2024/01/22 03:00:57;;;;;;;26.25;16.55;;;1.30;99.90;;;;;;2095207;28;20479;-74
2024/01/22 03:01:58;;;;;;;27.50;16.40;;;1.30;99.90;;;;;;2094240;28;20059;-76
2024/01/22 03:02:58;;;;;;;26.38;16.13;;;1.30;99.90;;;;;;2086352;28;20164;-75
2024/01/22 03:03:59;;;;;;;28.10;16.23;;;1.30;99.90;;;;;;2078262;28;20034;-74
2024/01/22 03:05:06;;;;;;;27.02;16.38;;;1.30;99.90;;;;;;2079820;28;20025;-75
2024/01/22 03:06:07;;;;;;;25.13;15.70;;;1.30;99.90;;;;;;2092886;28;20029;-76
2024/01/22 03:07:08;;;;;;;26.48;16.17;;;1.30;99.90;;;;;;2092355;28;20732;-76
2024/01/22 03:08:09;;;;;;;27.95;16.30;;;1.30;99.90;;;;;;2076129;28;20022;-75
2024/01/22 03:09:09;;;;;;;24.95;15.82;;;1.30;99.90;;;;;;2079646;28;20495;-74
2024/01/22 03:10:10;;;;;;;27.25;16.17;;;1.30;99.90;;;;;;2090328;28;20051;-75
2024/01/22 03:11:11;;;;;;;27.40;16.80;;;1.30;99.90;;;;;;2087881;28;20056;-76
2024/01/22 03:12:12;;;;;;;25.05;15.50;;;1.30;99.90;;;;;;2083358;28;20037;-75
2024/01/22 03:13:12;;;;;;;26.77;16.35;;;1.40;99.90;;;;;;2088328;28;20027;-75
2024/01/22 03:14:13;;;;;;;26.92;16.70;;;1.40;99.90;;;;;;2087784;28;20029;-73
2024/01/22 03:15:14;;;;;;;26.67;16.40;;;1.50;99.90;;;;;;2087648;28;20070;-73
2024/01/22 03:16:15;;;;;;;27.80;16.85;;;1.40;99.90;;;;;;2092340;28;20073;-73
2024/01/22 03:17:16;;;;;;;27.15;16.88;;;1.40;99.90;;;;;;2096348;28;20517;-73
2024/01/22 03:18:16;;;;;;;25.70;16.83;;;1.40;99.90;;;;;;2079599;28;20095;-74
2024/01/22 03:19:17;;;;;;;29.40;17.08;;;1.40;99.90;;;;;;2079364;28;20052;-74
2024/01/22 03:20:17;;;;;;;27.80;16.73;;;1.40;99.90;;;;;;2079917;28;20025;-74
2024/01/22 03:21:18;;;;;;;26.80;16.38;;;1.40;99.90;;;;;;2091633;28;20107;-74
2024/01/22 03:22:25;;;;;;;28.05;17.20;;;1.40;99.90;;;;;;2093186;28;20518;-73
2024/01/22 03:23:26;;;;;;;27.50;16.75;;;1.50;99.90;;;;;;2091132;28;20033;-74
2024/01/22 03:24:28;;;;;;;27.00;16.63;;;1.40;99.90;;;;;;2094039;28;20509;-73
2024/01/22 03:25:28;;;;;;;29.35;17.02;;;1.50;99.90;;;;;;2072088;28;20456;-74
2024/01/22 03:26:29;;;;;;;27.83;16.92;;;1.50;99.90;;;;;;2081756;28;20045;-74
2024/01/22 03:27:29;;;;;;;29.50;17.58;;;1.50;99.90;;;;;;2086138;28;20055;-73
2024/01/22 03:28:30;;;;;;;27.92;17.13;;;1.50;99.90;;;;;;2102706;28;20016;-75
2024/01/22 03:29:31;;;;;;;30.00;17.15;;;1.50;99.90;;;;;;2082553;28;20032;-74
2024/01/22 03:30:31;;;;;;;27.15;16.85;;;1.50;99.90;;;;;;2079736;28;20116;-75
2024/01/22 03:31:37;;;;;;;29.15;17.27;;;1.50;99.90;;;;;;2078060;28;20029;-74
2024/01/22 03:32:38;;;;;;;28.98;17.17;;;1.50;99.90;;;;;;2087123;28;20048;-73
2024/01/22 03:33:38;;;;;;;28.63;17.00;;;1.50;99.90;;;;;;2092137;28;20028;-74
2024/01/22 03:34:42;;;;;;;28.98;18.25;;;1.50;99.90;;;;;;2092983;28;20077;-73
2024/01/22 03:35:43;;;;;;;28.95;17.30;;;1.50;99.90;;;;;;2095888;28;20066;-75
2024/01/22 03:36:44;;;;;;;27.40;17.42;;;1.50;99.90;;;;;;2091650;28;20020;-75
2024/01/22 03:37:44;;;;;;;29.00;18.33;;;1.50;99.90;;;;;;2084368;28;20829;-75
2024/01/22 03:38:45;;;;;;;27.88;17.45;;;1.50;99.90;;;;;;2075461;28;20510;-75
2024/01/22 03:39:46;;;;;;;27.92;17.00;;;1.60;99.90;;;;;;2079711;28;20037;-73
2024/01/22 03:40:47;;;;;;;32.65;18.30;;;1.60;99.90;;;;;;2083918;28;20064;-77
2024/01/22 03:41:47;;;;;;;31.63;18.30;;;1.50;99.90;;;;;;2083884;28;20119;-74
2024/01/22 03:42:48;;;;;;;31.42;18.83;;;1.60;99.90;;;;;;2100284;28;20027;-74
2024/01/22 03:43:48;;;;;;;33.65;18.00;;;1.60;99.90;;;;;;2092181;28;20037;-74
2024/01/22 03:44:50;;;;;;;31.15;18.10;;;1.50;99.90;;;;;;2087471;28;20029;-74
2024/01/22 03:45:50;;;;;;;30.35;18.55;;;1.50;99.90;;;;;;2079676;28;20029;-74
2024/01/22 03:46:51;;;;;;;32.10;18.58;;;1.50;99.90;;;;;;2080806;28;20391;-75
2024/01/22 03:47:52;;;;;;;28.45;18.05;;;1.50;99.90;;;;;;2075758;28;20084;-73
2024/01/22 03:48:52;;;;;;;30.50;18.90;;;1.50;99.90;;;;;;2087372;28;20037;-74
2024/01/22 03:49:53;;;;;;;31.08;17.75;;;1.50;99.90;;;;;;2091950;28;20028;-72
2024/01/22 03:50:54;;;;;;;31.48;17.60;;;1.50;99.90;;;;;;2096775;28;20058;-75
2024/01/22 03:52:06;;;;;;;28.13;17.38;;;1.50;99.90;;;;;;2092490;28;20029;-75
2024/01/22 03:53:07;;;;;;;30.02;17.88;;;1.50;99.90;;;;;;2094898;28;20016;-75
2024/01/22 03:54:08;;;;;;;28.42;17.30;;;1.50;99.90;;;;;;2085995;28;20040;-76
2024/01/22 03:55:09;;;;;;;28.98;17.33;;;1.50;99.90;;;;;;2077833;28;20730;-75
2024/01/22 03:56:10;;;;;;;27.13;17.02;;;1.50;99.90;;;;;;2079859;28;20487;-74
2024/01/22 03:57:10;;;;;;;28.45;17.58;;;1.50;99.90;;;;;;2075431;28;20013;-75
2024/01/22 03:58:11;;;;;;;28.23;17.40;;;1.50;99.90;;;;;;2088109;28;20531;-75
2024/01/22 03:59:24;;;;;;;27.50;17.38;;;1.50;99.90;;;;;;2100534;28;20029;-75
2024/01/22 04:00:24;;;;;;;29.20;16.95;;;1.60;99.90;;;;;;2085179;28;20035;-75
2024/01/22 04:01:25;;;;;;;28.25;17.25;;;1.60;99.90;;;;;;2075574;28;20025;-75
2024/01/22 04:02:26;;;;;;;28.08;16.70;;;1.60;99.90;;;;;;2091486;28;20453;-75
2024/01/22 04:03:26;;;;;;;28.65;17.13;;;1.60;99.90;;;;;;2094154;28;20060;-74
2024/01/22 04:04:27;;;;;;;30.63;16.92;;;1.70;99.90;;;;;;2086816;28;20643;-75
2024/01/22 04:05:28;;;;;;;27.40;16.95;;;1.60;99.90;;;;;;2091884;28;20016;-75
2024/01/22 04:06:28;;;;;;;26.77;16.45;;;1.70;99.90;;;;;;2079647;28;20590;-75
2024/01/22 04:07:29;;;;;;;26.15;16.60;;;1.70;99.90;;;;;;2079782;28;20039;-74
2024/01/22 04:08:29;;;;;;;29.15;16.42;;;1.70;99.90;;;;;;2091992;28;20082;-74
2024/01/22 04:09:30;;;;;;;26.98;16.17;;;1.80;99.90;;;;;;2095863;28;20028;-73
2024/01/22 04:10:30;;;;;;;28.25;16.73;;;1.70;99.90;;;;;;2083401;28;20738;-73
2024/01/22 04:11:31;;;;;;;29.02;16.73;;;1.80;99.90;;;;;;2083947;28;20057;-73
2024/01/22 04:12:32;;;;;;;27.52;17.15;;;1.80;99.90;;;;;;2096892;28;20019;-76
2024/01/22 04:13:32;;;;;;;28.63;16.73;;;1.80;99.90;;;;;;2092216;28;20102;-76
2024/01/22 04:14:33;;;;;;;27.45;16.65;;;1.80;99.90;;;;;;2095525;28;20025;-75
2024/01/22 04:15:34;;;;;;;27.17;16.42;;;1.80;99.90;;;;;;2083808;28;20024;-76
2024/01/22 04:16:35;;;;;;;26.40;16.90;;;1.90;99.90;;;;;;2089907;28;20055;-74
2024/01/22 04:17:36;;;;;;;26.20;15.90;;;1.80;99.90;;;;;;2095055;28;20036;-74
2024/01/22 04:18:36;;;;;;;25.80;15.98;;;1.80;99.90;;;;;;2096916;28;20036;-74
2024/01/22 04:19:37;;;;;;;29.35;15.77;;;1.80;99.90;;;;;;2094861;28;20029;-74
2024/01/22 04:20:38;;;;;;;27.58;16.00;;;1.90;99.90;;;;;;2104183;28;20039;-74
2024/01/22 04:21:45;;;;;;;26.98;15.60;;;1.80;99.90;;;;;;2083090;28;20032;-74
2024/01/22 04:22:46;;;;;;;26.42;16.05;;;1.90;99.90;;;;;;2087693;28;20060;-75
2024/01/22 04:23:46;;;;;;;27.88;16.30;;;1.90;99.90;;;;;;2087040;28;20033;-76
2024/01/22 04:24:47;;;;;;;27.73;17.08;;;1.90;99.90;;;;;;2077651;28;20510;-75
2024/01/22 04:25:48;;;;;;;25.92;16.33;;;1.90;99.90;;;;;;2093825;28;20035;-73
2024/01/22 04:26:48;;;;;;;30.95;16.98;;;1.90;99.90;;;;;;2085650;28;20025;-74
2024/01/22 04:27:49;;;;;;;26.83;16.60;;;1.90;99.90;;;;;;2095997;28;20575;-75
2024/01/22 04:29:01;;;;;;;29.00;17.08;;;1.90;99.90;;;;;;2095439;28;20032;-74
2024/01/22 04:30:03;;;;;;;27.15;17.20;;;1.80;99.90;;;;;;2084975;28;20041;-76
2024/01/22 04:31:06;;;;;;;28.08;17.17;;;1.90;99.90;;;;;;2073519;28;20057;-81
2024/01/22 04:32:07;;;;;;;27.70;17.05;;;1.90;99.90;;;;;;2076478;28;20119;-71
2024/01/22 04:33:07;;;;;;;30.02;17.58;;;1.90;99.90;;;;;;2071679;28;20030;-80
2024/01/22 04:34:08;;;;;;;29.73;18.10;;;1.90;99.90;;;;;;2079924;28;20037;-80
2024/01/22 04:35:09;;;;;;;29.88;17.40;;;1.80;99.90;;;;;;2084562;28;20025;-81
2024/01/22 04:36:09;;;;;;;28.95;17.20;;;1.80;99.90;;;;;;2069666;28;20038;-81
2024/01/22 04:37:10;;;;;;;29.38;17.63;;;1.80;99.90;;;;;;2080016;28;20037;-79
2024/01/22 04:38:11;;;;;;;29.92;17.85;;;1.80;99.90;;;;;;2088225;28;20552;-82
2024/01/22 04:39:11;;;;;;;31.45;18.10;;;1.80;99.90;;;;;;2088608;28;20441;-79
2024/01/22 04:40:14;;;;;;;30.02;18.17;;;1.80;99.90;;;;;;2094454;28;20056;-83
2024/01/22 04:41:14;;;;;;;31.60;18.85;;;1.80;99.90;;;;;;2088665;28;20036;-81
2024/01/22 04:42:20;;;;;;;29.45;17.92;;;1.80;99.90;;;;;;2084319;28;20084;-79
2024/01/22 04:43:24;;;;;;;29.73;17.83;;;1.80;99.90;;;;;;2082615;28;20095;-81
2024/01/22 04:44:28;;;;;;;30.65;18.67;;;1.90;99.90;;;;;;2092771;28;20506;-80
2024/01/22 04:45:29;;;;;;;31.27;18.13;;;1.80;99.90;;;;;;2086423;28;20503;-83
2024/01/22 04:46:30;;;;;;;27.50;17.70;;;1.80;99.90;;;;;;2070550;28;20049;-81
2024/01/22 04:47:30;;;;;;;29.98;19.30;;;1.80;99.90;;;;;;2080769;28;20048;-80
2024/01/22 04:48:31;;;;;;;32.47;19.52;;;1.70;99.90;;;;;;2078653;28;20066;-80
2024/01/22 04:49:37;;;;;;;35.38;19.55;;;1.70;99.90;;;;;;2075993;28;20029;-81
2024/01/22 04:50:38;;;;;;;32.72;19.08;;;1.80;99.90;;;;;;2093493;28;20021;-81
2024/01/22 04:51:42;;;;;;;33.08;18.77;;;1.70;99.90;;;;;;2076705;28;20522;-80
2024/01/22 04:52:43;;;;;;;37.70;20.08;;;1.70;99.90;;;;;;2077558;28;20064;-80
2024/01/22 04:53:44;;;;;;;31.00;18.50;;;1.70;99.90;;;;;;2082089;28;20028;-81
2024/01/22 04:54:44;;;;;;;36.67;19.42;;;1.70;99.90;;;;;;2076772;28;20033;-80
2024/01/22 04:55:45;;;;;;;30.25;18.67;;;1.70;99.90;;;;;;2083947;28;20552;-82
2024/01/22 04:56:46;;;;;;;30.98;18.40;;;1.70;99.90;;;;;;2106431;28;20091;-79
2024/01/22 04:57:47;;;;;;;33.10;18.58;;;1.70;99.90;;;;;;2098535;28;20078;-80
2024/01/22 04:58:47;;;;;;;36.92;20.70;;;1.70;99.90;;;;;;2085063;28;20505;-80
2024/01/22 04:59:48;;;;;;;30.85;18.83;;;1.70;99.90;;;;;;2095279;28;20109;-81
2024/01/22 05:00:49;;;;;;;30.15;17.83;;;1.70;99.90;;;;;;2087483;28;20718;-81
2024/01/22 05:01:49;;;;;;;29.67;17.65;;;1.70;99.90;;;;;;2084381;28;20068;-81
2024/01/22 05:02:50;;;;;;;33.63;18.45;;;1.70;99.90;;;;;;2085916;28;20010;-81
2024/01/22 05:03:51;;;;;;;31.08;18.20;;;1.80;99.90;;;;;;2094792;28;20041;-81
2024/01/22 05:04:51;;;;;;;31.08;17.80;;;1.80;99.90;;;;;;2104136;28;20079;-82
2024/01/22 05:05:52;;;;;;;28.20;17.50;;;1.80;99.90;;;;;;2096696;28;20058;-79
2024/01/22 05:06:52;;;;;;;28.98;17.70;;;1.80;99.90;;;;;;2103571;28;20024;-82
2024/01/22 05:07:53;;;;;;;31.23;18.20;;;1.80;99.90;;;;;;2092694;28;20055;-81
2024/01/22 05:08:54;;;;;;;28.70;16.55;;;1.80;99.90;;;;;;2091528;28;20190;-82
2024/01/22 05:09:59;;;;;;;29.85;17.88;;;1.90;99.90;;;;;;2096895;28;20060;-82
2024/01/22 05:11:00;;;;;;;27.85;17.30;;;1.90;99.90;;;;;;2082089;28;20088;-79
2024/01/22 05:12:01;;;;;;;30.33;18.77;;;1.80;99.90;;;;;;2081173;28;20064;-79
2024/01/22 05:13:01;;;;;;;32.50;18.05;;;1.90;99.90;;;;;;2083965;28;20660;-82
2024/01/22 05:14:03;;;;;;;27.63;17.15;;;1.90;99.90;;;;;;2092074;28;20044;-82
2024/01/22 05:15:04;;;;;;;28.08;17.65;;;1.90;99.90;;;;;;2090318;28;20092;-82
2024/01/22 05:16:05;;;;;;;29.15;17.38;;;1.90;99.90;;;;;;2080407;28;20022;-82